createdAt,value
2017-04-12T00:00:37.363Z,8.20
2017-04-12T00:01:36.318Z,8.20
2017-04-12T00:02:36.006Z,8.20
2017-04-12T00:03:34.929Z,8.20
2017-04-12T00:04:33.852Z,8.20
2017-04-12T00:05:32.796Z,8.20
2017-04-12T00:06:31.735Z,8.20
2017-04-12T00:07:30.679Z,8.20
2017-04-12T00:08:29.655Z,8.20
2017-04-12T00:09:28.577Z,8.20
2017-04-12T00:10:27.520Z,8.20
2017-04-12T00:11:26.503Z,8.30
2017-04-12T00:12:25.428Z,8.20
2017-04-12T00:13:24.339Z,8.20
2017-04-12T00:14:23.317Z,8.20
2017-04-12T00:15:22.240Z,8.20
2017-04-12T00:16:21.135Z,8.20
2017-04-12T00:17:20.060Z,8.20
2017-04-12T00:18:19.042Z,8.20
2017-04-12T00:19:17.960Z,8.20
2017-04-12T00:20:16.955Z,8.20
2017-04-12T00:21:15.885Z,8.20
2017-04-12T00:22:14.992Z,8.20
2017-04-12T00:23:14.064Z,8.20
2017-04-12T00:24:12.981Z,8.20
2017-04-12T00:25:11.903Z,8.20
2017-04-12T00:26:11.576Z,8.10
2017-04-12T00:27:10.486Z,8.20
2017-04-12T00:28:09.419Z,8.10
2017-04-12T00:29:08.339Z,6.70
2017-04-12T00:30:07.301Z,8.40
2017-04-12T00:31:06.213Z,8.30
2017-04-12T00:32:05.894Z,8.20
2017-04-12T00:33:04.801Z,8.20
2017-04-12T00:34:03.719Z,8.20
2017-04-12T00:35:02.627Z,8.20
2017-04-12T00:36:01.536Z,8.20
2017-04-12T00:37:00.451Z,8.10
2017-04-12T00:37:59.397Z,8.10
2017-04-12T00:38:58.327Z,8.10
2017-04-12T00:39:57.239Z,8.10
2017-04-12T00:40:56.199Z,8.00
2017-04-12T00:41:55.094Z,8.00
2017-04-12T00:42:54.001Z,8.00
2017-04-12T00:43:53.668Z,7.90
2017-04-12T00:44:52.575Z,8.00
2017-04-12T00:45:52.240Z,8.00
2017-04-12T00:46:51.131Z,7.90
2017-04-12T00:47:50.105Z,7.90
2017-04-12T00:48:49.021Z,7.90
2017-04-12T00:49:48.724Z,7.90
2017-04-12T00:50:48.378Z,7.80
2017-04-12T00:51:47.336Z,7.90
2017-04-12T00:52:46.256Z,7.90
2017-04-12T00:53:45.180Z,7.90
2017-04-12T00:54:44.103Z,7.90
2017-04-12T00:55:43.028Z,7.90
2017-04-12T00:56:42.674Z,7.80
2017-04-12T00:57:41.616Z,7.90
2017-04-12T00:58:40.507Z,7.80
2017-04-12T00:59:39.412Z,7.80
2017-04-12T01:00:38.438Z,7.80
2017-04-12T01:01:38.099Z,7.80
2017-04-12T01:02:37.048Z,7.80
2017-04-12T01:03:36.169Z,7.80
2017-04-12T01:04:35.160Z,7.80
2017-04-12T01:05:34.063Z,7.80
2017-04-12T01:06:32.962Z,7.80
2017-04-12T01:07:32.785Z,7.70
2017-04-12T01:08:31.691Z,7.80
2017-04-12T01:09:30.624Z,7.80
2017-04-12T01:10:30.314Z,7.70
2017-04-12T01:11:29.266Z,7.70
2017-04-12T01:12:28.205Z,7.70
2017-04-12T01:13:27.152Z,7.70
2017-04-12T01:14:26.051Z,7.80
2017-04-12T01:15:25.688Z,7.70
2017-04-12T01:16:24.576Z,7.80
2017-04-12T01:17:23.506Z,7.80
2017-04-12T01:18:23.152Z,7.70
2017-04-12T01:19:22.083Z,7.80
2017-04-12T01:20:21.735Z,7.70
2017-04-12T01:21:20.662Z,7.80
2017-04-12T01:22:20.316Z,7.70
2017-04-12T01:23:19.328Z,7.70
2017-04-12T01:24:18.260Z,7.70
2017-04-12T01:25:18.190Z,7.70
2017-04-12T01:26:17.148Z,7.70
2017-04-12T01:27:16.048Z,7.70
2017-04-12T01:28:14.967Z,7.70
2017-04-12T01:29:14.620Z,7.70
2017-04-12T01:30:13.531Z,7.80
2017-04-12T01:31:14.253Z,7.70
2017-04-12T01:32:13.161Z,7.70
2017-04-12T01:33:14.459Z,7.70
2017-04-12T01:34:13.411Z,7.70
2017-04-12T01:35:12.332Z,7.70
2017-04-12T01:36:11.274Z,7.70
2017-04-12T01:37:10.187Z,7.60
2017-04-12T01:38:09.125Z,7.70
2017-04-12T01:39:08.060Z,7.60
2017-04-12T01:40:06.956Z,7.70
2017-04-12T01:41:05.877Z,7.70
2017-04-12T01:42:04.815Z,7.60
2017-04-12T01:43:03.730Z,7.70
2017-04-12T01:44:02.652Z,7.70
2017-04-12T01:45:01.544Z,7.70
2017-04-12T01:46:00.472Z,7.70
2017-04-12T01:46:59.407Z,7.70
2017-04-12T01:47:58.319Z,7.70
2017-04-12T01:48:57.239Z,7.70
2017-04-12T01:49:56.176Z,7.80
2017-04-12T01:50:55.098Z,7.70
2017-04-12T01:51:54.024Z,7.70
2017-04-12T01:52:52.940Z,7.70
2017-04-12T01:53:51.872Z,7.70
2017-04-12T01:54:50.780Z,7.70
2017-04-12T01:55:50.427Z,7.70
2017-04-12T01:56:49.316Z,7.70
2017-04-12T01:57:48.216Z,7.70
2017-04-12T01:58:47.136Z,7.70
2017-04-12T01:59:46.083Z,7.70
2017-04-12T02:00:45.033Z,7.70
2017-04-12T02:01:43.935Z,7.70
2017-04-12T02:02:42.856Z,7.70
2017-04-12T02:03:41.776Z,7.70
2017-04-12T02:04:40.717Z,7.70
2017-04-12T02:05:39.863Z,7.70
2017-04-12T02:06:38.799Z,7.70
2017-04-12T02:07:37.735Z,7.70
2017-04-12T02:08:36.653Z,7.70
2017-04-12T02:09:35.565Z,7.70
2017-04-12T02:10:34.490Z,7.80
2017-04-12T02:11:33.437Z,7.70
2017-04-12T02:12:32.408Z,7.80
2017-04-12T02:13:31.332Z,7.80
2017-04-12T02:14:30.256Z,7.70
2017-04-12T02:15:29.180Z,7.80
2017-04-12T02:16:28.114Z,7.80
2017-04-12T02:17:27.037Z,7.80
2017-04-12T02:18:26.008Z,7.80
2017-04-12T02:19:24.932Z,7.70
2017-04-12T02:20:23.844Z,7.80
2017-04-12T02:21:22.756Z,7.80
2017-04-12T02:22:21.690Z,7.70
2017-04-12T02:23:20.603Z,7.70
2017-04-12T02:24:19.524Z,7.70
2017-04-12T02:25:19.181Z,7.70
2017-04-12T02:26:18.107Z,7.80
2017-04-12T02:27:17.261Z,7.80
2017-04-12T02:28:16.183Z,7.80
2017-04-12T02:29:15.112Z,7.70
2017-04-12T02:30:14.020Z,7.70
2017-04-12T02:31:12.999Z,7.70
2017-04-12T02:32:11.900Z,7.70
2017-04-12T02:33:11.576Z,7.70
2017-04-12T02:34:11.240Z,7.70
2017-04-12T02:35:10.163Z,7.70
2017-04-12T02:36:09.091Z,7.70
2017-04-12T02:37:08.019Z,7.70
2017-04-12T02:38:06.950Z,7.70
2017-04-12T02:39:06.212Z,7.80
2017-04-12T02:40:05.865Z,7.70
2017-04-12T02:41:04.821Z,7.70
2017-04-12T02:42:03.751Z,7.70
2017-04-12T02:43:02.651Z,7.80
2017-04-12T02:44:01.631Z,7.80
2017-04-12T02:45:00.568Z,7.70
2017-04-12T02:45:59.492Z,7.70
2017-04-12T02:46:58.380Z,7.70
2017-04-12T02:47:57.461Z,7.70
2017-04-12T02:48:56.384Z,7.70
2017-04-12T02:49:55.338Z,7.70
2017-04-12T02:50:54.265Z,7.70
2017-04-12T02:51:53.255Z,7.70
2017-04-12T02:52:52.156Z,7.70
2017-04-12T02:53:51.060Z,7.70
2017-04-12T02:54:49.957Z,7.70
2017-04-12T02:55:48.892Z,7.70
2017-04-12T02:56:47.795Z,7.70
2017-04-12T02:57:46.722Z,7.60
2017-04-12T02:58:45.652Z,7.70
2017-04-12T02:59:44.561Z,7.70
2017-04-12T03:00:43.457Z,7.70
2017-04-12T03:01:42.379Z,7.70
2017-04-12T03:02:41.284Z,7.70
2017-04-12T03:03:40.943Z,7.70
2017-04-12T03:04:39.845Z,7.70
2017-04-12T03:05:38.772Z,7.70
2017-04-12T03:06:37.722Z,7.70
2017-04-12T03:07:37.360Z,7.70
2017-04-12T03:08:36.311Z,7.70
2017-04-12T03:09:35.240Z,7.70
2017-04-12T03:10:34.180Z,7.70
2017-04-12T03:11:33.852Z,7.60
2017-04-12T03:12:32.811Z,7.70
2017-04-12T03:13:31.712Z,7.70
2017-04-12T03:14:30.624Z,7.70
2017-04-12T03:15:29.528Z,7.70
2017-04-12T03:16:28.448Z,7.70
2017-04-12T03:17:27.372Z,7.60
2017-04-12T03:18:26.263Z,7.60
2017-04-12T03:19:25.196Z,7.70
2017-04-12T03:20:24.148Z,7.70
2017-04-12T03:21:23.068Z,7.70
2017-04-12T03:22:22.757Z,7.70
2017-04-12T03:23:21.919Z,7.70
2017-04-12T03:24:20.831Z,7.70
2017-04-12T03:25:19.716Z,7.70
2017-04-12T03:26:19.360Z,7.70
2017-04-12T03:27:18.260Z,7.70
2017-04-12T03:28:17.207Z,7.70
2017-04-12T03:29:16.131Z,7.70
2017-04-12T03:30:15.068Z,7.70
2017-04-12T03:31:13.993Z,7.70
2017-04-12T03:32:12.894Z,7.70
2017-04-12T03:33:11.811Z,7.70
2017-04-12T03:34:10.736Z,7.70
2017-04-12T03:35:09.712Z,7.70
2017-04-12T03:36:08.648Z,7.70
2017-04-12T03:37:07.566Z,7.80
2017-04-12T03:38:06.504Z,7.70
2017-04-12T03:39:05.705Z,7.80
2017-04-12T03:40:04.606Z,7.80
2017-04-12T03:41:03.550Z,7.80
2017-04-12T03:42:02.476Z,7.80
2017-04-12T03:43:01.425Z,7.80
2017-04-12T03:44:00.351Z,7.90
2017-04-12T03:44:59.256Z,7.80
2017-04-12T03:45:58.165Z,7.80
2017-04-12T03:46:57.068Z,7.80
2017-04-12T03:47:55.981Z,7.80
2017-04-12T03:48:54.883Z,7.80
2017-04-12T03:49:54.571Z,7.80
2017-04-12T03:50:53.489Z,7.80
2017-04-12T03:51:52.424Z,7.80
2017-04-12T03:52:51.329Z,7.80
2017-04-12T03:53:50.968Z,7.80
2017-04-12T03:54:49.892Z,7.80
2017-04-12T03:55:48.863Z,7.80
2017-04-12T03:56:47.784Z,7.80
2017-04-12T03:57:47.460Z,7.80
2017-04-12T03:58:46.375Z,7.80
2017-04-12T03:59:45.272Z,7.80
2017-04-12T04:00:44.351Z,7.80
2017-04-12T04:01:43.291Z,7.90
2017-04-12T04:02:42.205Z,7.90
2017-04-12T04:03:41.114Z,7.90
2017-04-12T04:04:40.044Z,7.90
2017-04-12T04:05:39.200Z,7.90
2017-04-12T04:06:38.172Z,7.90
2017-04-12T04:07:37.072Z,8.00
2017-04-12T04:08:35.994Z,8.00
2017-04-12T04:09:34.902Z,7.90
2017-04-12T04:10:33.851Z,7.90
2017-04-12T04:11:32.802Z,7.90
2017-04-12T04:12:31.762Z,7.90
2017-04-12T04:13:34.667Z,8.00
2017-04-12T04:14:33.571Z,8.00
2017-04-12T04:15:32.469Z,8.00
2017-04-12T04:16:31.384Z,8.00
2017-04-12T04:17:30.308Z,8.00
2017-04-12T04:18:35.122Z,8.00
2017-04-12T04:19:34.852Z,8.00
2017-04-12T04:20:33.767Z,8.00
2017-04-12T04:21:32.698Z,8.00
2017-04-12T04:22:31.644Z,8.00
2017-04-12T04:23:30.913Z,8.00
2017-04-12T04:24:29.833Z,8.00
2017-04-12T04:25:29.500Z,8.00
2017-04-12T04:26:28.399Z,8.10
2017-04-12T04:27:27.311Z,8.10
2017-04-12T04:28:26.263Z,8.10
2017-04-12T04:29:25.204Z,8.10
2017-04-12T04:30:24.135Z,8.10
2017-04-12T04:31:23.820Z,8.10
2017-04-12T04:32:22.753Z,8.10
2017-04-12T04:33:21.701Z,8.20
2017-04-12T04:34:21.377Z,8.10
2017-04-12T04:35:20.319Z,8.10
2017-04-12T04:36:19.330Z,8.10
2017-04-12T04:37:18.239Z,8.20
2017-04-12T04:38:17.911Z,8.10
2017-04-12T04:39:16.870Z,8.20
2017-04-12T04:40:15.815Z,8.20
2017-04-12T04:41:14.754Z,8.20
2017-04-12T04:42:13.705Z,8.20
2017-04-12T04:43:12.627Z,8.20
2017-04-12T04:44:11.580Z,8.20
2017-04-12T04:45:10.495Z,8.30
2017-04-12T04:46:09.432Z,8.30
2017-04-12T04:47:08.382Z,8.30
2017-04-12T04:48:08.087Z,8.20
2017-04-12T04:49:07.024Z,8.30
2017-04-12T04:50:05.952Z,8.30
2017-04-12T04:51:04.894Z,8.30
2017-04-12T04:52:03.864Z,8.30
2017-04-12T04:53:02.799Z,8.30
2017-04-12T04:54:01.711Z,8.30
2017-04-12T04:55:00.650Z,8.40
2017-04-12T04:56:00.392Z,8.30
2017-04-12T04:56:59.315Z,8.40
2017-04-12T04:57:58.983Z,8.30
2017-04-12T04:58:57.892Z,8.40
2017-04-12T04:59:56.859Z,8.40
2017-04-12T05:00:55.956Z,8.40
2017-04-12T05:01:54.888Z,8.40
2017-04-12T05:02:53.816Z,8.40
2017-04-12T05:04:52.103Z,8.40
2017-04-12T05:05:51.808Z,8.40
2017-04-12T05:06:50.725Z,8.40
2017-04-12T05:07:49.652Z,8.40
2017-04-12T05:08:48.576Z,8.40
2017-04-12T05:09:47.500Z,8.40
2017-04-12T05:10:46.423Z,8.40
2017-04-12T05:11:45.349Z,8.50
2017-04-12T05:12:44.252Z,8.50
2017-04-12T05:13:43.189Z,8.50
2017-04-12T05:14:42.141Z,8.60
2017-04-12T05:15:41.848Z,8.50
2017-04-12T05:16:40.804Z,8.60
2017-04-12T05:17:39.913Z,8.60
2017-04-12T05:18:38.869Z,8.60
2017-04-12T05:19:37.837Z,8.60
2017-04-12T05:20:36.759Z,8.60
2017-04-12T05:21:35.708Z,8.60
2017-04-12T05:22:35.509Z,8.60
2017-04-12T05:23:34.423Z,8.60
2017-04-12T05:24:33.357Z,8.60
2017-04-12T05:25:32.308Z,8.60
2017-04-12T05:26:31.268Z,8.60
2017-04-12T05:27:30.320Z,8.60
2017-04-12T05:28:29.255Z,8.60
2017-04-12T05:29:28.184Z,8.60
2017-04-12T05:30:27.108Z,8.60
2017-04-12T05:31:26.016Z,8.60
2017-04-12T05:32:25.021Z,8.60
2017-04-12T05:33:24.723Z,8.60
2017-04-12T05:34:23.707Z,8.70
2017-04-12T05:35:22.725Z,8.70
2017-04-12T05:36:20.884Z,8.60
2017-04-12T05:37:19.862Z,8.60
2017-04-12T05:38:19.512Z,8.50
2017-04-12T05:39:18.432Z,8.60
2017-04-12T05:40:18.179Z,8.50
2017-04-12T05:41:17.203Z,8.60
2017-04-12T05:42:16.146Z,8.60
2017-04-12T05:43:15.081Z,8.60
2017-04-12T05:44:14.046Z,8.60
2017-04-12T05:46:12.345Z,8.70
2017-04-12T05:47:12.017Z,8.60
2017-04-12T05:48:10.980Z,8.70
2017-04-12T05:49:09.924Z,8.70
2017-04-12T05:50:08.868Z,8.70
2017-04-12T05:51:07.832Z,8.70
2017-04-12T05:52:06.723Z,8.80
2017-04-12T05:53:05.644Z,8.70
2017-04-12T05:54:04.565Z,8.70
2017-04-12T05:55:03.513Z,8.70
2017-04-12T05:56:02.425Z,8.70
2017-04-12T05:57:01.344Z,8.70
2017-04-12T05:58:00.292Z,8.70
2017-04-12T05:58:59.217Z,8.70
2017-04-12T05:59:58.873Z,8.70
2017-04-12T06:00:57.853Z,8.80
2017-04-12T06:01:56.840Z,8.80
2017-04-12T06:02:55.776Z,8.90
2017-04-12T06:03:54.687Z,8.90
2017-04-12T06:04:53.617Z,8.90
2017-04-12T06:05:53.314Z,8.80
2017-04-12T06:06:52.271Z,8.80
2017-04-12T06:07:51.182Z,8.90
2017-04-12T06:08:50.225Z,8.80
2017-04-12T06:09:49.159Z,8.80
2017-04-12T06:10:48.196Z,8.90
2017-04-12T06:11:47.176Z,8.90
2017-04-12T06:12:46.100Z,8.90
2017-04-12T06:13:45.784Z,8.80
2017-04-12T06:14:44.728Z,8.90
2017-04-12T06:15:43.649Z,8.90
2017-04-12T06:16:42.607Z,8.90
2017-04-12T06:17:41.528Z,8.90
2017-04-12T06:18:40.492Z,9.00
2017-04-12T06:19:40.163Z,8.90
2017-04-12T06:20:39.140Z,8.90
2017-04-12T06:21:38.125Z,9.00
2017-04-12T06:22:37.049Z,8.90
2017-04-12T06:23:35.969Z,8.90
2017-04-12T06:24:34.873Z,8.90
2017-04-12T06:25:33.894Z,8.90
2017-04-12T06:26:32.828Z,8.90
2017-04-12T06:27:31.855Z,8.90
2017-04-12T06:28:30.819Z,8.90
2017-04-12T06:29:30.544Z,8.80
2017-04-12T06:30:29.513Z,8.90
2017-04-12T06:31:29.241Z,8.80
2017-04-12T06:32:29.171Z,8.80
2017-04-12T06:33:28.097Z,8.70
2017-04-12T06:34:27.063Z,8.70
2017-04-12T06:35:26.035Z,8.60
2017-04-12T06:36:24.928Z,8.70
2017-04-12T06:37:23.948Z,8.70
2017-04-12T06:38:22.973Z,8.70
2017-04-12T06:39:21.962Z,8.70
2017-04-12T06:40:20.873Z,8.70
2017-04-12T06:41:19.791Z,8.70
2017-04-12T06:42:18.739Z,8.70
2017-04-12T06:43:18.467Z,8.60
2017-04-12T06:44:17.448Z,8.70
2017-04-12T06:45:16.390Z,8.70
2017-04-12T06:46:15.332Z,8.70
2017-04-12T06:47:14.261Z,8.70
2017-04-12T06:48:13.946Z,8.70
2017-04-12T06:49:12.917Z,8.70
2017-04-12T06:50:11.851Z,8.80
2017-04-12T06:51:11.003Z,8.70
2017-04-12T06:52:10.685Z,8.70
2017-04-12T06:53:09.658Z,8.70
2017-04-12T06:54:08.568Z,8.70
2017-04-12T06:55:07.519Z,8.70
2017-04-12T06:56:06.502Z,8.70
2017-04-12T06:57:05.466Z,8.80
2017-04-12T06:58:04.573Z,8.70
2017-04-12T06:59:03.844Z,8.70
2017-04-12T07:00:03.004Z,8.70
2017-04-12T07:01:02.110Z,8.80
2017-04-12T07:02:01.324Z,8.80
2017-04-12T07:03:01.062Z,8.90
2017-04-12T07:04:00.369Z,8.90
2017-04-12T07:04:59.437Z,8.80
2017-04-12T07:05:58.464Z,8.90
2017-04-12T07:06:57.548Z,8.90
2017-04-12T07:07:56.654Z,8.90
2017-04-12T07:08:55.655Z,8.80
2017-04-12T07:09:54.615Z,8.90
2017-04-12T07:10:53.601Z,8.80
2017-04-12T07:11:52.576Z,8.80
2017-04-12T07:12:51.531Z,8.80
2017-04-12T07:13:50.446Z,8.80
2017-04-12T07:14:49.392Z,8.90
2017-04-12T07:15:48.365Z,8.90
2017-04-12T07:16:47.459Z,8.90
2017-04-12T07:17:46.398Z,9.00
2017-04-12T07:18:45.351Z,8.90
2017-04-12T07:19:44.331Z,8.90
2017-04-12T07:20:43.304Z,8.90
2017-04-12T07:21:42.242Z,8.90
2017-04-12T07:22:41.177Z,8.90
2017-04-12T07:23:40.172Z,8.90
2017-04-12T07:24:39.094Z,8.90
2017-04-12T07:25:38.028Z,8.90
2017-04-12T07:26:37.051Z,9.00
2017-04-12T07:27:36.052Z,9.00
2017-04-12T07:28:35.028Z,9.00
2017-04-12T07:29:34.057Z,9.00
2017-04-12T07:30:33.020Z,9.10
2017-04-12T07:31:32.203Z,9.10
2017-04-12T07:32:31.127Z,9.10
2017-04-12T07:33:30.088Z,9.00
2017-04-12T07:34:28.986Z,9.10
2017-04-12T07:35:27.957Z,9.10
2017-04-12T07:36:26.905Z,9.10
2017-04-12T07:37:25.867Z,9.10
2017-04-12T07:38:24.869Z,9.10
2017-04-12T07:39:23.844Z,9.20
2017-04-12T07:40:22.782Z,9.20
2017-04-12T07:41:22.451Z,9.10
2017-04-12T07:42:21.402Z,9.20
2017-04-12T07:43:20.416Z,9.10
2017-04-12T07:44:19.368Z,9.20
2017-04-12T07:45:18.619Z,9.80
2017-04-12T07:46:18.299Z,9.10
2017-04-12T07:47:17.218Z,9.20
2017-04-12T07:48:16.894Z,9.20
2017-04-12T07:49:15.864Z,9.20
2017-04-12T07:50:14.851Z,9.20
2017-04-12T07:51:13.819Z,9.20
2017-04-12T07:52:12.791Z,9.30
2017-04-12T07:53:11.727Z,9.30
2017-04-12T07:54:10.705Z,9.30
2017-04-12T07:55:09.647Z,9.30
2017-04-12T07:56:08.554Z,9.30
2017-04-12T07:57:08.324Z,9.30
2017-04-12T07:58:07.314Z,9.30
2017-04-12T07:59:06.236Z,9.30
2017-04-12T08:00:05.196Z,9.40
2017-04-12T08:01:04.109Z,9.30
2017-04-12T08:02:03.035Z,9.30
2017-04-12T08:03:01.958Z,9.30
2017-04-12T08:04:00.910Z,9.30
2017-04-12T08:04:59.848Z,9.30
2017-04-12T08:05:58.807Z,9.30
2017-04-12T08:06:57.841Z,9.30
2017-04-12T08:07:56.773Z,9.30
2017-04-12T08:08:56.422Z,9.30
2017-04-12T08:09:55.347Z,9.30
2017-04-12T08:10:54.271Z,9.30
2017-04-12T08:11:53.608Z,9.40
2017-04-12T08:12:52.531Z,9.40
2017-04-12T08:13:51.443Z,9.40
2017-04-12T08:14:50.419Z,9.40
2017-04-12T08:15:49.324Z,9.40
2017-04-12T08:16:48.382Z,9.50
2017-04-12T08:17:47.391Z,9.50
2017-04-12T08:18:46.328Z,9.50
2017-04-12T08:19:45.265Z,9.50
2017-04-12T08:20:44.338Z,9.50
2017-04-12T08:21:44.524Z,9.50
2017-04-12T08:22:43.476Z,9.50
2017-04-12T08:23:42.411Z,9.50
2017-04-12T08:24:41.348Z,9.50
2017-04-12T08:25:40.291Z,9.50
2017-04-12T08:26:39.984Z,9.30
2017-04-12T08:27:38.987Z,9.40
2017-04-12T08:28:37.919Z,9.40
2017-04-12T08:29:36.844Z,9.40
2017-04-12T08:30:35.777Z,9.40
2017-04-12T08:31:34.709Z,9.40
2017-04-12T08:32:34.064Z,9.50
2017-04-12T08:33:33.000Z,9.50
2017-04-12T08:34:32.232Z,9.50
2017-04-12T08:35:31.183Z,9.60
2017-04-12T08:36:30.124Z,9.60
2017-04-12T08:37:29.825Z,9.50
2017-04-12T08:38:29.585Z,9.50
2017-04-12T08:39:28.588Z,9.50
2017-04-12T08:40:27.580Z,9.50
2017-04-12T08:41:27.163Z,9.50
2017-04-12T08:42:26.799Z,9.40
2017-04-12T08:43:25.744Z,9.50
2017-04-12T08:44:24.706Z,9.50
2017-04-12T08:45:23.661Z,9.50
2017-04-12T08:46:22.597Z,9.60
2017-04-12T08:47:21.861Z,9.60
2017-04-12T08:48:20.847Z,9.50
2017-04-12T08:49:19.771Z,9.50
2017-04-12T08:50:18.745Z,9.60
2017-04-12T08:51:17.657Z,9.60
2017-04-12T08:52:16.620Z,9.60
2017-04-12T08:53:15.532Z,9.60
2017-04-12T08:54:14.462Z,9.60
2017-04-12T08:55:13.383Z,9.70
2017-04-12T08:56:12.328Z,9.70
2017-04-12T08:57:12.001Z,9.70
2017-04-12T08:58:10.945Z,9.70
2017-04-12T08:59:09.883Z,9.70
2017-04-12T09:00:09.603Z,9.70
2017-04-12T09:01:08.637Z,9.70
2017-04-12T09:02:07.608Z,9.70
2017-04-12T09:03:06.545Z,9.70
2017-04-12T09:04:05.467Z,9.80
2017-04-12T09:05:04.435Z,9.80
2017-04-12T09:06:03.367Z,9.80
2017-04-12T09:07:02.320Z,9.80
2017-04-12T09:08:01.260Z,9.80
2017-04-12T09:09:00.167Z,9.80
2017-04-12T09:09:59.116Z,9.80
2017-04-12T09:10:58.063Z,9.80
2017-04-12T09:11:57.243Z,9.80
2017-04-12T09:12:56.164Z,9.90
2017-04-12T09:13:55.104Z,9.90
2017-04-12T09:14:53.992Z,10.00
2017-04-12T09:15:52.944Z,10.00
2017-04-12T09:16:52.036Z,10.00
2017-04-12T09:17:50.958Z,10.10
2017-04-12T09:18:49.873Z,10.10
2017-04-12T09:19:48.841Z,10.10
2017-04-12T09:20:47.775Z,10.00
2017-04-12T09:21:46.764Z,9.90
2017-04-12T09:22:45.749Z,10.00
2017-04-12T09:23:44.718Z,10.00
2017-04-12T09:24:43.665Z,10.00
2017-04-12T09:25:42.754Z,10.00
2017-04-12T09:26:41.824Z,10.00
2017-04-12T09:27:40.763Z,10.00
2017-04-12T09:28:39.701Z,10.00
2017-04-12T09:29:38.665Z,10.00
2017-04-12T09:30:37.632Z,10.00
2017-04-12T09:31:37.381Z,10.00
2017-04-12T09:32:36.354Z,10.00
2017-04-12T09:33:35.320Z,10.00
2017-04-12T09:34:34.355Z,10.00
2017-04-12T09:35:33.268Z,10.00
2017-04-12T09:36:32.171Z,10.00
2017-04-12T09:37:31.130Z,10.00
2017-04-12T09:38:30.097Z,10.00
2017-04-12T09:39:29.067Z,10.00
2017-04-12T09:40:28.072Z,10.00
2017-04-12T09:41:27.239Z,10.00
2017-04-12T09:42:26.162Z,10.00
2017-04-12T09:43:25.393Z,10.00
2017-04-12T09:44:24.332Z,10.10
2017-04-12T09:45:23.242Z,10.10
2017-04-12T09:46:22.204Z,10.20
2017-04-12T09:47:21.147Z,10.20
2017-04-12T09:48:20.098Z,10.20
2017-04-12T09:49:19.055Z,10.20
2017-04-12T09:50:18.096Z,10.20
2017-04-12T09:51:17.101Z,10.10
2017-04-12T09:52:17.127Z,10.10
2017-04-12T09:53:16.095Z,10.10
2017-04-12T09:54:15.010Z,10.10
2017-04-12T09:55:13.946Z,10.10
2017-04-12T09:56:12.991Z,10.10
2017-04-12T09:57:11.928Z,10.10
2017-04-12T09:58:10.864Z,10.10
2017-04-12T09:59:09.913Z,10.10
2017-04-12T10:00:08.859Z,10.10
2017-04-12T10:01:07.840Z,10.10
2017-04-12T10:02:06.780Z,10.10
2017-04-12T10:03:05.715Z,10.10
2017-04-12T10:04:04.677Z,10.10
2017-04-12T10:05:04.349Z,10.10
2017-04-12T10:06:03.288Z,10.20
2017-04-12T10:07:02.271Z,10.20
2017-04-12T10:08:01.260Z,10.20
2017-04-12T10:09:00.242Z,10.20
2017-04-12T10:09:59.184Z,10.30
2017-04-12T10:10:58.115Z,10.30
2017-04-12T10:11:57.047Z,10.30
2017-04-12T10:12:56.034Z,10.30
2017-04-12T10:13:55.739Z,10.20
2017-04-12T10:14:54.711Z,10.20
2017-04-12T10:15:54.723Z,10.20
2017-04-12T10:16:54.473Z,10.20
2017-04-12T10:17:53.440Z,10.30
2017-04-12T10:18:52.415Z,10.30
2017-04-12T10:19:51.348Z,10.20
2017-04-12T10:20:50.308Z,10.30
2017-04-12T10:21:49.304Z,10.30
2017-04-12T10:22:48.276Z,10.30
2017-04-12T10:23:47.275Z,10.30
2017-04-12T10:25:45.630Z,10.20
2017-04-12T10:26:44.567Z,10.20
2017-04-12T10:27:43.480Z,10.20
2017-04-12T10:28:42.482Z,10.10
2017-04-12T10:29:41.434Z,10.20
2017-04-12T10:30:40.384Z,10.10
2017-04-12T10:31:40.076Z,10.10
2017-04-12T10:32:39.132Z,10.10
2017-04-12T10:33:38.134Z,10.10
2017-04-12T10:34:37.070Z,10.10
2017-04-12T10:35:36.076Z,10.00
2017-04-12T10:36:35.084Z,10.00
2017-04-12T10:37:34.045Z,9.90
2017-04-12T10:39:33.032Z,9.80
2017-04-12T10:40:31.964Z,9.80
2017-04-12T10:41:30.919Z,9.80
2017-04-12T10:42:30.656Z,9.80
2017-04-12T10:43:29.577Z,9.80
2017-04-12T10:44:28.599Z,9.90
2017-04-12T10:45:27.575Z,9.80
2017-04-12T10:46:26.495Z,9.80
2017-04-12T10:47:25.415Z,9.80
2017-04-12T10:48:24.360Z,9.80
2017-04-12T10:49:23.473Z,9.80
2017-04-12T10:50:22.391Z,9.80
2017-04-12T10:51:21.343Z,9.80
2017-04-12T10:52:20.360Z,9.80
2017-04-12T10:53:19.342Z,9.70
2017-04-12T10:54:18.325Z,9.70
2017-04-12T10:55:17.272Z,9.70
2017-04-12T10:56:16.209Z,9.70
2017-04-12T10:57:15.221Z,9.70
2017-04-12T10:58:14.153Z,9.80
2017-04-12T10:59:13.123Z,9.80
2017-04-12T11:00:12.826Z,9.70
2017-04-12T11:01:12.482Z,9.80
2017-04-12T11:02:11.383Z,9.80
2017-04-12T11:03:10.351Z,9.80
2017-04-12T11:04:09.280Z,9.80
2017-04-12T11:05:08.310Z,9.80
2017-04-12T11:06:07.314Z,9.80
2017-04-12T11:07:06.254Z,9.80
2017-04-12T11:08:05.357Z,9.80
2017-04-12T11:09:06.264Z,9.90
2017-04-12T11:10:05.224Z,9.90
2017-04-12T11:11:04.250Z,9.90
2017-04-12T11:12:03.316Z,9.90
2017-04-12T11:13:02.264Z,9.80
2017-04-12T11:14:01.328Z,9.80
2017-04-12T11:15:00.305Z,9.80
2017-04-12T11:15:59.370Z,9.80
2017-04-12T11:16:58.308Z,9.80
2017-04-12T11:17:57.995Z,9.80
2017-04-12T11:18:56.962Z,9.80
2017-04-12T11:19:56.666Z,9.70
2017-04-12T11:20:55.605Z,9.80
2017-04-12T11:21:54.555Z,9.80
2017-04-12T11:22:53.511Z,9.80
2017-04-12T11:23:52.671Z,9.70
2017-04-12T11:24:51.662Z,9.80
2017-04-12T11:25:50.648Z,9.80
2017-04-12T11:26:49.598Z,9.70
2017-04-12T11:27:48.550Z,9.70
2017-04-12T11:28:47.508Z,9.70
2017-04-12T11:29:47.188Z,9.70
2017-04-12T11:30:46.152Z,9.80
2017-04-12T11:31:45.129Z,9.80
2017-04-12T11:32:44.052Z,9.80
2017-04-12T11:33:43.100Z,9.80
2017-04-12T11:34:42.044Z,9.80
2017-04-12T11:35:40.996Z,9.80
2017-04-12T11:36:39.924Z,9.80
2017-04-12T11:37:38.865Z,9.80
2017-04-12T11:38:38.552Z,9.70
2017-04-12T11:39:37.474Z,9.80
2017-04-12T11:40:36.399Z,9.80
2017-04-12T11:41:35.354Z,9.70
2017-04-12T11:42:34.272Z,9.80
2017-04-12T11:43:33.192Z,9.70
2017-04-12T11:44:32.144Z,9.70
2017-04-12T11:45:31.820Z,9.70
2017-04-12T11:46:30.755Z,9.70
2017-04-12T11:47:29.724Z,9.60
2017-04-12T11:48:28.743Z,9.60
2017-04-12T11:49:27.656Z,9.60
2017-04-12T11:50:26.571Z,9.50
2017-04-12T11:51:25.509Z,9.50
2017-04-12T11:52:24.448Z,9.50
2017-04-12T11:53:23.464Z,9.50
2017-04-12T11:54:22.365Z,9.50
2017-04-12T11:55:21.311Z,9.50
2017-04-12T11:56:20.308Z,9.50
2017-04-12T11:57:19.304Z,9.50
2017-04-12T11:58:18.240Z,9.60
2017-04-12T11:59:17.192Z,9.50
2017-04-12T12:00:16.889Z,9.50
2017-04-12T12:01:16.582Z,9.50
2017-04-12T12:02:15.876Z,9.50
2017-04-12T12:03:14.796Z,9.50
2017-04-12T12:04:13.733Z,9.40
2017-04-12T12:05:12.696Z,9.40
2017-04-12T12:06:11.647Z,9.40
2017-04-12T12:07:10.596Z,9.40
2017-04-12T12:08:10.276Z,9.30
2017-04-12T12:09:09.236Z,9.40
2017-04-12T12:10:08.911Z,9.40
2017-04-12T12:11:07.977Z,9.40
2017-04-12T12:12:06.981Z,9.40
2017-04-12T12:13:06.088Z,9.30
2017-04-12T12:14:05.799Z,9.30
2017-04-12T12:15:04.765Z,9.30
2017-04-12T12:16:03.699Z,9.30
2017-04-12T12:17:02.720Z,9.30
2017-04-12T12:18:01.669Z,9.30
2017-04-12T12:19:00.600Z,9.30
2017-04-12T12:19:59.537Z,9.30
2017-04-12T12:20:58.451Z,9.20
2017-04-12T12:21:57.391Z,9.10
2017-04-12T12:22:56.348Z,9.10
2017-04-12T12:23:55.388Z,9.10
2017-04-12T12:24:54.312Z,9.00
2017-04-12T12:25:53.267Z,9.00
2017-04-12T12:26:52.259Z,9.00
2017-04-12T12:27:51.248Z,9.00
2017-04-12T12:28:50.185Z,9.00
2017-04-12T12:29:49.145Z,9.00
2017-04-12T12:30:48.198Z,9.00
2017-04-12T12:31:47.123Z,9.00
2017-04-12T12:32:46.038Z,9.00
2017-04-12T12:33:44.958Z,9.00
2017-04-12T12:34:44.067Z,9.00
2017-04-12T12:35:42.963Z,9.00
2017-04-12T12:36:41.869Z,9.00
2017-04-12T12:37:40.855Z,9.00
2017-04-12T12:38:39.842Z,9.10
2017-04-12T12:39:38.760Z,9.10
2017-04-12T12:40:37.761Z,9.10
2017-04-12T12:41:36.684Z,9.20
2017-04-12T12:42:35.613Z,9.10
2017-04-12T12:43:34.523Z,9.10
2017-04-12T12:44:33.499Z,9.00
2017-04-12T12:45:32.447Z,9.00
2017-04-12T12:46:32.128Z,9.00
2017-04-12T12:47:31.092Z,9.10
2017-04-12T12:48:30.033Z,9.10
2017-04-12T12:49:28.965Z,9.10
2017-04-12T12:50:27.997Z,9.10
2017-04-12T12:51:26.908Z,9.20
2017-04-12T12:52:25.854Z,9.20
2017-04-12T12:53:24.768Z,9.20
2017-04-12T12:54:23.700Z,9.20
2017-04-12T12:55:22.743Z,9.20
2017-04-12T12:56:21.691Z,9.20
2017-04-12T12:57:20.704Z,9.30
2017-04-12T12:58:19.667Z,9.20
2017-04-12T12:59:18.599Z,9.20
2017-04-12T13:00:18.837Z,9.20
2017-04-12T13:01:18.172Z,9.20
2017-04-12T13:02:18.331Z,9.20
2017-04-12T13:03:17.364Z,9.20
2017-04-12T13:04:16.333Z,9.30
2017-04-12T13:05:15.334Z,9.20
2017-04-12T13:06:14.351Z,9.20
2017-04-12T13:07:13.603Z,9.30